Time;durP1;ratioP1;P1;durP2;ratioP2;P2;SDS_P1;SDS_P2;PMS_P1;PMS_P2;Temp;Humidity;BMP_temperature;BMP_pressure;BME280_temperature;BME280_humidity;BME280_pressure;Samples;Min_cycle;Max_cycle;Signal;HPM_P1;HPM_P2
2022/10/18 00:01:19;;;;;;;17.70;10.70;;;;;;;;;;5058197;28;20025;-78
2022/10/18 00:03:45;;;;;;;23.20;12.23;;;;;;;;;;5040904;28;20044;-79
2022/10/18 00:06:12;;;;;;;20.38;11.13;;;;;;;;;;5040510;28;20036;-78
2022/10/18 00:08:38;;;;;;;22.15;10.88;;;;;;;;;;5040906;28;20044;-80
2022/10/18 00:11:05;;;;;;;21.30;11.18;;;;;;;;;;5041271;28;20473;-78
2022/10/18 00:13:31;;;;;;;23.63;10.80;;;;;;;;;;5040554;28;20029;-78
2022/10/18 00:15:58;;;;;;;23.58;11.52;;;;;;;;;;5040517;28;20066;-79
2022/10/18 00:18:25;;;;;;;26.95;11.82;;;;;;;;;;5028674;28;20025;-78
2022/10/18 00:21:02;;;;;;;23.48;11.50;;;;;;;;;;5041897;28;20071;-78
2022/10/18 00:23:31;;;;;;;21.15;10.68;;;;;;;;;;5040312;28;20115;-79
2022/10/18 00:26:08;;;;;;;23.60;10.98;;;;;;;;;;5040525;28;20029;-78
2022/10/18 00:28:35;;;;;;;25.67;11.00;;;;;;;;;;5040939;28;20033;-79
2022/10/18 00:31:10;;;;;;;23.50;11.10;;;;;;;;;;5040416;28;20356;-79
2022/10/18 00:33:36;;;;;;;22.88;10.55;;;;;;;;;;5042266;28;20145;-79
2022/10/18 00:36:02;;;;;;;30.63;12.10;;;;;;;;;;5040753;28;20025;-79
2022/10/18 00:38:28;;;;;;;23.65;11.43;;;;;;;;;;5040200;28;20025;-78
2022/10/18 00:40:54;;;;;;;17.92;10.52;;;;;;;;;;5040127;28;20060;-78
2022/10/18 00:43:20;;;;;;;17.98;10.13;;;;;;;;;;5059220;28;20029;-78
2022/10/18 00:45:46;;;;;;;19.70;10.65;;;;;;;;;;5039893;28;20025;-78
2022/10/18 00:48:16;;;;;;;19.67;9.80;;;;;;;;;;5041924;28;20033;-79
2022/10/18 00:50:43;;;;;;;17.23;9.77;;;;;;;;;;5041513;28;20159;-79
2022/10/18 00:53:12;;;;;;;29.88;11.20;;;;;;;;;;5039701;28;20460;-79
2022/10/18 00:55:39;;;;;;;28.55;10.57;;;;;;;;;;5039891;28;20025;-79
2022/10/18 00:58:05;;;;;;;18.52;10.27;;;;;;;;;;5040125;28;20040;-79
2022/10/18 01:00:31;;;;;;;23.58;12.52;;;;;;;;;;5039508;28;20029;-79
2022/10/18 01:02:58;;;;;;;23.67;12.18;;;;;;;;;;5042888;28;20025;-79
2022/10/18 01:05:25;;;;;;;21.77;12.73;;;;;;;;;;5039512;28;20040;-78
2022/10/18 01:08:14;;;;;;;25.58;13.13;;;;;;;;;;5057337;28;20028;-79
2022/10/18 01:11:02;;;;;;;23.23;12.88;;;;;;;;;;5033163;28;20029;-79
2022/10/18 01:13:34;;;;;;;26.30;13.02;;;;;;;;;;5057097;28;20029;-78
2022/10/18 01:16:12;;;;;;;27.63;14.63;;;;;;;;;;5039312;28;20116;-78
2022/10/18 01:18:51;;;;;;;30.35;13.68;;;;;;;;;;5044794;28;20032;-79
2022/10/18 01:21:17;;;;;;;27.42;12.88;;;;;;;;;;5039096;28;20504;-80
2022/10/18 01:24:12;;;;;;;22.73;13.07;;;;;;;;;;5056585;28;20032;-78
2022/10/18 01:26:37;;;;;;;26.58;12.85;;;;;;;;;;5039369;28;20036;-78
2022/10/18 01:29:26;;;;;;;24.50;13.48;;;;;;;;;;5038891;28;20025;-78
2022/10/18 01:31:56;;;;;;;27.80;14.75;;;;;;;;;;5038777;28;20064;-79
2022/10/18 01:34:23;;;;;;;24.00;14.02;;;;;;;;;;5038696;28;20064;-79
2022/10/18 01:36:51;;;;;;;28.27;14.77;;;;;;;;;;5035144;28;20040;-78
2022/10/18 01:39:22;;;;;;;23.30;14.23;;;;;;;;;;5035856;28;20029;-78
2022/10/18 01:41:49;;;;;;;24.30;13.45;;;;;;;;;;5034067;28;20597;-79
2022/10/18 01:44:20;;;;;;;23.85;13.10;;;;;;;;;;5036157;28;20036;-78
2022/10/18 01:46:46;;;;;;;23.23;13.02;;;;;;;;;;5051003;28;20037;-79
2022/10/18 01:49:12;;;;;;;22.25;13.07;;;;;;;;;;5036427;28;20040;-79
2022/10/18 01:51:38;;;;;;;23.45;13.65;;;;;;;;;;5032846;28;20029;-79
2022/10/18 01:54:04;;;;;;;23.42;14.20;;;;;;;;;;5034437;28;20037;-78
2022/10/18 01:56:30;;;;;;;26.02;13.48;;;;;;;;;;5027798;28;20460;-78
2022/10/18 01:59:06;;;;;;;27.35;14.73;;;;;;;;;;5025302;28;20346;-78
2022/10/18 02:01:42;;;;;;;32.53;15.32;;;;;;;;;;5052777;28;20029;-78
2022/10/18 02:04:18;;;;;;;28.67;13.77;;;;;;;;;;5033442;28;20033;-79
2022/10/18 02:06:46;;;;;;;23.42;14.07;;;;;;;;;;5036738;28;20456;-79
2022/10/18 02:09:16;;;;;;;22.27;14.32;;;;;;;;;;5052656;28;20464;-78
2022/10/18 02:11:42;;;;;;;27.00;14.60;;;;;;;;;;5028785;28;20025;-78
2022/10/18 02:14:11;;;;;;;25.52;14.45;;;;;;;;;;5035854;28;20060;-79
2022/10/18 02:16:37;;;;;;;27.63;14.30;;;;;;;;;;5050706;28;20029;-78
2022/10/18 02:19:29;;;;;;;23.30;13.68;;;;;;;;;;5035964;28;20488;-79
2022/10/18 02:21:57;;;;;;;26.95;15.30;;;;;;;;;;5021407;28;20434;-77
2022/10/18 02:24:23;;;;;;;40.30;18.05;;;;;;;;;;5036456;28;20025;-79
2022/10/18 02:26:50;;;;;;;36.60;18.85;;;;;;;;;;5033055;28;20033;-77
2022/10/18 02:29:18;;;;;;;34.95;19.20;;;;;;;;;;5035467;28;20025;-79
2022/10/18 02:31:45;;;;;;;34.40;19.00;;;;;;;;;;5034376;28;20044;-77
2022/10/18 02:34:27;;;;;;;35.70;17.63;;;;;;;;;;5050042;28;20460;-79
2022/10/18 02:36:54;;;;;;;39.20;18.52;;;;;;;;;;5027053;28;20060;-78
2022/10/18 02:39:48;;;;;;;35.53;17.67;;;;;;;;;;5029855;28;20430;-78
2022/10/18 02:42:20;;;;;;;34.25;18.52;;;;;;;;;;5033465;28;20039;-77
2022/10/18 02:44:48;;;;;;;37.13;18.90;;;;;;;;;;5031385;28;20373;-78
2022/10/18 02:47:14;;;;;;;47.58;22.13;;;;;;;;;;5032932;28;20033;-77
2022/10/18 02:49:40;;;;;;;47.10;21.98;;;;;;;;;;5032721;28;20082;-78
2022/10/18 02:52:06;;;;;;;51.05;21.98;;;;;;;;;;5033018;28;20372;-77
2022/10/18 02:54:32;;;;;;;47.17;22.63;;;;;;;;;;5051174;28;20085;-78
2022/10/18 02:56:58;;;;;;;47.92;23.23;;;;;;;;;;5048530;28;20036;-78
2022/10/18 02:59:24;;;;;;;55.35;23.38;;;;;;;;;;5034809;28;20094;-78
2022/10/18 03:01:50;;;;;;;55.60;24.05;;;;;;;;;;5034182;28;20083;-78
2022/10/18 03:04:16;;;;;;;53.90;23.88;;;;;;;;;;5034356;28;20028;-78
2022/10/18 03:06:42;;;;;;;58.65;24.15;;;;;;;;;;5035638;28;20032;-78
2022/10/18 03:09:09;;;;;;;49.53;22.45;;;;;;;;;;5035644;28;20029;-77
2022/10/18 03:11:35;;;;;;;58.38;24.55;;;;;;;;;;5034877;28;20128;-78
2022/10/18 03:14:01;;;;;;;51.75;23.75;;;;;;;;;;5033485;28;20086;-78
2022/10/18 03:16:27;;;;;;;59.95;25.10;;;;;;;;;;5033327;28;20037;-77
2022/10/18 03:18:53;;;;;;;55.97;24.27;;;;;;;;;;5034656;28;20025;-78
2022/10/18 03:21:19;;;;;;;61.67;24.05;;;;;;;;;;5049692;28;20044;-79
2022/10/18 03:23:45;;;;;;;62.45;23.92;;;;;;;;;;5027095;28;20044;-78
2022/10/18 03:26:11;;;;;;;48.30;22.60;;;;;;;;;;5033991;28;20029;-78
2022/10/18 03:28:40;;;;;;;54.13;22.67;;;;;;;;;;5032800;28;20041;-77
2022/10/18 03:31:06;;;;;;;42.72;21.73;;;;;;;;;;5052428;28;20093;-78
2022/10/18 03:33:32;;;;;;;47.90;21.52;;;;;;;;;;5029629;28;20521;-78
2022/10/18 03:35:59;;;;;;;56.30;21.85;;;;;;;;;;5035555;28;20035;-78
2022/10/18 03:38:25;;;;;;;66.38;23.55;;;;;;;;;;5037135;28;20025;-78
2022/10/18 03:40:53;;;;;;;78.65;25.77;;;;;;;;;;5037493;28;20025;-77
2022/10/18 03:43:19;;;;;;;78.20;24.65;;;;;;;;;;5039874;28;20049;-79
2022/10/18 03:45:45;;;;;;;73.40;23.85;;;;;;;;;;5037040;28;20043;-77
2022/10/18 03:48:11;;;;;;;71.28;23.48;;;;;;;;;;5037135;28;20087;-79
2022/10/18 03:50:38;;;;;;;82.68;23.73;;;;;;;;;;5057928;28;20040;-78
2022/10/18 03:53:04;;;;;;;70.43;23.77;;;;;;;;;;5036788;28;20048;-78
2022/10/18 03:55:30;;;;;;;55.75;22.63;;;;;;;;;;5036674;28;20036;-78
2022/10/18 03:57:56;;;;;;;67.22;22.88;;;;;;;;;;5037114;28;20028;-79
2022/10/18 04:00:22;;;;;;;58.05;23.70;;;;;;;;;;5037667;28;20102;-78
2022/10/18 04:02:48;;;;;;;65.40;24.75;;;;;;;;;;5040334;28;20029;-78
2022/10/18 04:05:14;;;;;;;89.72;26.27;;;;;;;;;;5036722;28;20033;-77
2022/10/18 04:07:40;;;;;;;82.57;25.42;;;;;;;;;;5038670;28;20044;-78
2022/10/18 04:10:06;;;;;;;68.97;23.20;;;;;;;;;;5038052;28;20032;-78
2022/10/18 04:12:32;;;;;;;73.93;26.02;;;;;;;;;;5036637;28;20449;-78
2022/10/18 04:14:58;;;;;;;57.72;22.90;;;;;;;;;;5037123;28;20226;-78
2022/10/18 04:17:24;;;;;;;64.95;23.00;;;;;;;;;;5036909;28;20523;-78
2022/10/18 04:19:50;;;;;;;73.57;24.83;;;;;;;;;;5037032;28;20046;-78
2022/10/18 04:22:19;;;;;;;70.97;24.00;;;;;;;;;;5030886;28;20457;-78
2022/10/18 04:24:45;;;;;;;58.15;22.70;;;;;;;;;;5036553;28;20025;-78
2022/10/18 04:27:11;;;;;;;59.90;24.50;;;;;;;;;;5040944;28;20056;-78
2022/10/18 04:29:39;;;;;;;70.03;26.35;;;;;;;;;;5040166;28;20029;-78
2022/10/18 04:32:05;;;;;;;83.47;26.35;;;;;;;;;;5039957;28;20029;-78
2022/10/18 04:34:31;;;;;;;75.85;25.00;;;;;;;;;;5041242;28;20033;-79
2022/10/18 04:36:57;;;;;;;57.55;22.88;;;;;;;;;;5040142;28;20040;-78
2022/10/18 04:39:23;;;;;;;61.42;23.38;;;;;;;;;;5039941;28;20028;-78
2022/10/18 04:41:49;;;;;;;68.70;23.58;;;;;;;;;;5039711;28;20028;-78
2022/10/18 04:44:15;;;;;;;67.57;23.85;;;;;;;;;;5037143;28;20033;-78
2022/10/18 04:46:41;;;;;;;70.55;24.13;;;;;;;;;;5029697;28;20040;-78
2022/10/18 04:49:07;;;;;;;72.70;26.00;;;;;;;;;;5040368;28;20029;-78
2022/10/18 04:51:33;;;;;;;56.63;23.27;;;;;;;;;;5039986;28;20040;-78
2022/10/18 04:53:59;;;;;;;70.80;24.65;;;;;;;;;;5039538;28;20082;-78
2022/10/18 04:56:28;;;;;;;61.30;23.27;;;;;;;;;;5039639;28;20040;-78
2022/10/18 04:58:54;;;;;;;62.58;24.95;;;;;;;;;;5039551;28;20029;-78
2022/10/18 05:01:20;;;;;;;52.13;22.55;;;;;;;;;;5057065;28;20028;-78
2022/10/18 05:03:46;;;;;;;62.60;23.08;;;;;;;;;;5039774;28;20036;-78
2022/10/18 05:06:12;;;;;;;58.03;22.73;;;;;;;;;;5039777;28;20029;-78
2022/10/18 05:08:38;;;;;;;57.58;22.45;;;;;;;;;;5039428;28;20080;-78
2022/10/18 05:11:04;;;;;;;59.90;23.20;;;;;;;;;;5039228;28;20036;-78
2022/10/18 05:13:31;;;;;;;61.15;22.38;;;;;;;;;;5057052;28;20497;-78
2022/10/18 05:15:59;;;;;;;66.88;24.75;;;;;;;;;;5039436;28;20021;-78
2022/10/18 05:18:25;;;;;;;57.08;22.40;;;;;;;;;;5056559;28;20029;-78
2022/10/18 05:20:51;;;;;;;62.13;22.40;;;;;;;;;;5039235;28;20036;-78
2022/10/18 05:23:17;;;;;;;60.30;22.90;;;;;;;;;;5039281;28;20029;-78
2022/10/18 05:25:43;;;;;;;55.13;22.30;;;;;;;;;;5035706;28;20029;-78
2022/10/18 05:28:09;;;;;;;55.90;22.92;;;;;;;;;;5030345;28;20029;-78
2022/10/18 05:30:39;;;;;;;66.43;23.73;;;;;;;;;;5038824;28;20052;-78
2022/10/18 05:33:05;;;;;;;70.75;24.85;;;;;;;;;;5038260;28;20450;-78
2022/10/18 05:35:31;;;;;;;63.97;24.65;;;;;;;;;;5034230;28;20029;-78
2022/10/18 05:37:57;;;;;;;68.93;25.70;;;;;;;;;;5038877;28;20086;-78
2022/10/18 05:40:23;;;;;;;67.05;24.77;;;;;;;;;;5038828;28;20032;-78
2022/10/18 05:42:52;;;;;;;59.85;25.38;;;;;;;;;;5038765;28;20119;-78
2022/10/18 05:45:18;;;;;;;67.85;25.20;;;;;;;;;;5038885;28;20033;-78
2022/10/18 05:47:44;;;;;;;68.32;25.27;;;;;;;;;;5039337;28;20033;-78
2022/10/18 05:50:11;;;;;;;70.47;24.55;;;;;;;;;;5023161;28;20049;-78
2022/10/18 05:52:37;;;;;;;61.70;23.30;;;;;;;;;;5039105;28;20098;-79
2022/10/18 05:55:03;;;;;;;64.28;21.33;;;;;;;;;;5039550;28;20047;-78
2022/10/18 05:57:29;;;;;;;56.22;21.63;;;;;;;;;;5039830;28;20083;-78
2022/10/18 05:59:55;;;;;;;63.63;22.98;;;;;;;;;;5039372;28;20024;-77
2022/10/18 06:02:21;;;;;;;60.03;21.75;;;;;;;;;;5038816;28;20059;-78
2022/10/18 06:04:47;;;;;;;59.88;22.88;;;;;;;;;;5039623;28;20031;-78
2022/10/18 06:07:13;;;;;;;65.22;21.88;;;;;;;;;;5040650;28;20029;-78
2022/10/18 06:09:42;;;;;;;54.22;21.15;;;;;;;;;;5030247;28;20036;-78
2022/10/18 06:12:08;;;;;;;48.50;19.90;;;;;;;;;;5040738;28;20017;-78
2022/10/18 06:14:34;;;;;;;64.32;22.30;;;;;;;;;;5038311;28;20033;-78
2022/10/18 06:17:00;;;;;;;51.83;20.67;;;;;;;;;;5038037;28;20442;-78
2022/10/18 06:19:26;;;;;;;62.53;21.50;;;;;;;;;;5038244;28;20496;-78
2022/10/18 06:21:52;;;;;;;54.05;20.33;;;;;;;;;;5038497;28;20048;-78
2022/10/18 06:24:20;;;;;;;52.55;21.83;;;;;;;;;;5038407;28;20040;-78
2022/10/18 06:26:46;;;;;;;56.47;21.48;;;;;;;;;;5035422;28;20039;-77
2022/10/18 06:29:12;;;;;;;65.03;22.35;;;;;;;;;;5038579;28;20036;-78
2022/10/18 06:31:38;;;;;;;57.17;21.40;;;;;;;;;;5057623;28;20468;-78
2022/10/18 06:34:04;;;;;;;64.07;22.02;;;;;;;;;;5038602;28;20456;-78
2022/10/18 06:36:30;;;;;;;53.85;21.45;;;;;;;;;;5058379;28;20063;-78
2022/10/18 06:38:58;;;;;;;50.85;21.83;;;;;;;;;;5043361;28;20083;-78
2022/10/18 06:41:24;;;;;;;47.97;20.40;;;;;;;;;;5029885;28;20025;-78
2022/10/18 06:43:52;;;;;;;48.95;20.52;;;;;;;;;;5032375;28;20029;-78
2022/10/18 06:46:18;;;;;;;56.40;23.13;;;;;;;;;;5036670;28;20090;-78
2022/10/18 06:48:44;;;;;;;52.08;21.45;;;;;;;;;;5037420;28;20076;-78
2022/10/18 06:51:11;;;;;;;50.45;20.77;;;;;;;;;;5037702;28;20029;-78
2022/10/18 06:53:40;;;;;;;54.35;21.08;;;;;;;;;;5037468;28;20036;-78
2022/10/18 06:56:06;;;;;;;53.20;20.27;;;;;;;;;;5037398;28;20029;-78
2022/10/18 06:58:33;;;;;;;47.42;19.67;;;;;;;;;;5037563;28;20098;-78
2022/10/18 07:01:04;;;;;;;47.35;19.95;;;;;;;;;;5037780;28;20079;-78
2022/10/18 07:03:30;;;;;;;57.95;22.33;;;;;;;;;;5055012;28;20118;-79
2022/10/18 07:06:00;;;;;;;52.58;21.77;;;;;;;;;;5037644;28;20441;-79
2022/10/18 07:08:26;;;;;;;56.08;23.17;;;;;;;;;;5039637;28;20036;-78
2022/10/18 07:10:52;;;;;;;57.33;22.90;;;;;;;;;;5038805;28;20051;-79
2022/10/18 07:13:18;;;;;;;57.75;23.60;;;;;;;;;;5037786;28;20349;-78
2022/10/18 07:15:44;;;;;;;72.35;27.67;;;;;;;;;;5037648;28;20361;-78
2022/10/18 07:18:13;;;;;;;66.95;24.88;;;;;;;;;;5037176;28;20032;-78
2022/10/18 07:20:39;;;;;;;76.32;27.48;;;;;;;;;;5037248;28;20029;-79
2022/10/18 07:23:07;;;;;;;73.53;29.45;;;;;;;;;;5037444;28;20032;-78
2022/10/18 07:25:33;;;;;;;82.90;31.08;;;;;;;;;;5037550;28;20036;-78
2022/10/18 07:28:00;;;;;;;100.70;33.28;;;;;;;;;;5037074;28;20507;-78
2022/10/18 07:30:26;;;;;;;102.18;33.67;;;;;;;;;;5037432;28;20361;-78
2022/10/18 07:32:51;;;;;;;111.78;34.22;;;;;;;;;;5037040;28;20450;-78
2022/10/18 07:35:18;;;;;;;98.85;33.13;;;;;;;;;;5053139;28;20025;-77
2022/10/18 07:37:44;;;;;;;113.78;34.60;;;;;;;;;;5048096;28;20105;-78
2022/10/18 07:40:10;;;;;;;112.32;33.58;;;;;;;;;;5034445;28;20457;-78
2022/10/18 07:42:36;;;;;;;112.13;34.72;;;;;;;;;;5032726;28;20036;-78
2022/10/18 07:45:03;;;;;;;106.13;34.72;;;;;;;;;;5023645;28;20098;-78
2022/10/18 07:47:31;;;;;;;87.63;31.00;;;;;;;;;;5051351;28;20104;-78
2022/10/18 07:49:57;;;;;;;117.72;35.60;;;;;;;;;;5051495;28;20029;-78
2022/10/18 07:52:23;;;;;;;111.82;33.97;;;;;;;;;;5050874;28;20089;-78
2022/10/18 07:54:49;;;;;;;103.32;33.33;;;;;;;;;;5033521;28;20025;-77
2022/10/18 07:57:15;;;;;;;102.28;32.25;;;;;;;;;;5037201;28;20029;-78
2022/10/18 07:59:45;;;;;;;106.63;33.72;;;;;;;;;;5038374;28;20032;-78
2022/10/18 08:02:10;;;;;;;126.93;35.42;;;;;;;;;;5036406;28;20049;-78
2022/10/18 08:04:37;;;;;;;118.78;36.47;;;;;;;;;;5037287;28;20045;-78
2022/10/18 08:07:03;;;;;;;119.32;35.95;;;;;;;;;;5036620;28;20029;-78
2022/10/18 08:09:28;;;;;;;114.65;36.78;;;;;;;;;;5036787;28;20025;-77
2022/10/18 08:11:54;;;;;;;110.53;36.13;;;;;;;;;;5037857;28;20124;-78
2022/10/18 08:14:20;;;;;;;103.95;34.47;;;;;;;;;;5054686;28;20028;-77
2022/10/18 08:16:49;;;;;;;97.18;33.90;;;;;;;;;;5036542;28;20910;-78
2022/10/18 08:19:15;;;;;;;90.80;31.95;;;;;;;;;;5035783;28;20448;-78
2022/10/18 08:21:41;;;;;;;91.55;29.75;;;;;;;;;;5037858;28;20094;-78
2022/10/18 08:24:07;;;;;;;83.25;31.88;;;;;;;;;;5038162;28;20033;-78
2022/10/18 08:26:33;;;;;;;90.50;33.05;;;;;;;;;;5037696;28;20033;-78
2022/10/18 08:29:01;;;;;;;74.40;28.67;;;;;;;;;;5031259;28;20036;-78
2022/10/18 08:31:27;;;;;;;77.45;29.35;;;;;;;;;;5029649;28;20089;-78
2022/10/18 08:33:56;;;;;;;82.15;30.13;;;;;;;;;;5035759;28;20041;-78
2022/10/18 08:36:22;;;;;;;66.88;28.23;;;;;;;;;;5053087;28;20448;-79
2022/10/18 08:38:48;;;;;;;76.45;30.58;;;;;;;;;;5036347;28;20108;-77
2022/10/18 08:41:20;;;;;;;77.35;28.10;;;;;;;;;;5036569;28;20086;-78
2022/10/18 08:44:09;;;;;;;64.30;27.52;;;;;;;;;;5052074;28;20033;-78
2022/10/18 08:46:37;;;;;;;70.65;30.20;;;;;;;;;;5029209;28;20049;-78
2022/10/18 08:49:03;;;;;;;69.32;28.38;;;;;;;;;;5033440;28;20037;-78
2022/10/18 08:51:35;;;;;;;81.80;30.80;;;;;;;;;;5053668;28;20041;-78
2022/10/18 08:54:04;;;;;;;81.95;34.83;;;;;;;;;;5036985;28;20103;-78
2022/10/18 08:56:31;;;;;;;80.97;32.45;;;;;;;;;;5053818;28;20113;-78
2022/10/18 08:58:57;;;;;;;85.13;35.17;;;;;;;;;;5035467;28;20094;-78
2022/10/18 09:01:39;;;;;;;93.60;33.40;;;;;;;;;;5037274;28;20025;-78
2022/10/18 09:04:15;;;;;;;86.63;34.90;;;;;;;;;;5056121;28;20128;-77
2022/10/18 09:06:47;;;;;;;87.40;32.95;;;;;;;;;;5037972;28;20036;-78
2022/10/18 09:09:23;;;;;;;84.90;34.05;;;;;;;;;;5051835;28;20029;-78
2022/10/18 09:12:04;;;;;;;82.50;32.42;;;;;;;;;;5036085;28;20943;-78
2022/10/18 09:14:54;;;;;;;100.50;38.10;;;;;;;;;;5052495;28;20051;-78
2022/10/18 09:17:20;;;;;;;95.25;35.20;;;;;;;;;;5034631;28;20033;-78
2022/10/18 09:20:05;;;;;;;95.43;37.50;;;;;;;;;;5033942;28;20033;-77
2022/10/18 09:22:31;;;;;;;102.63;38.42;;;;;;;;;;5050558;28;20033;-78
2022/10/18 09:25:14;;;;;;;102.18;37.80;;;;;;;;;;5032210;28;20036;-78
2022/10/18 09:27:50;;;;;;;103.55;38.60;;;;;;;;;;5035625;28;21674;-78
2022/10/18 09:30:35;;;;;;;96.32;36.33;;;;;;;;;;5036936;28;20029;-78
2022/10/18 09:33:10;;;;;;;91.97;35.47;;;;;;;;;;5053637;28;20029;-78
2022/10/18 09:35:56;;;;;;;85.03;35.75;;;;;;;;;;5039880;28;20028;-78
2022/10/18 09:38:25;;;;;;;97.70;39.92;;;;;;;;;;5051061;28;20079;-78
2022/10/18 09:40:54;;;;;;;82.07;34.45;;;;;;;;;;5038501;28;20021;-77
2022/10/18 09:43:25;;;;;;;84.95;33.25;;;;;;;;;;5038754;28;20040;-78
2022/10/18 09:45:53;;;;;;;75.95;32.20;;;;;;;;;;5038634;28;20041;-78
2022/10/18 09:48:29;;;;;;;79.53;33.38;;;;;;;;;;5038582;28;20449;-78
2022/10/18 09:51:03;;;;;;;74.07;31.60;;;;;;;;;;5038909;28;20510;-79
2022/10/18 09:53:42;;;;;;;78.63;33.30;;;;;;;;;;5035731;28;20041;-79
2022/10/18 09:56:10;;;;;;;73.95;30.77;;;;;;;;;;5035837;28;20029;-79
2022/10/18 09:58:39;;;;;;;78.40;33.03;;;;;;;;;;5055896;28;20021;-78
2022/10/18 10:01:06;;;;;;;63.60;29.02;;;;;;;;;;5046906;28;20029;-78
2022/10/18 10:03:32;;;;;;;60.33;29.38;;;;;;;;;;5033887;28;20093;-78
2022/10/18 10:06:02;;;;;;;64.70;29.20;;;;;;;;;;5038208;28;20032;-79
2022/10/18 10:08:34;;;;;;;63.17;30.90;;;;;;;;;;5038079;28;20119;-78
2022/10/18 10:11:00;;;;;;;61.33;30.00;;;;;;;;;;5042685;28;20036;-79
2022/10/18 10:13:26;;;;;;;59.95;27.95;;;;;;;;;;5026101;28;20123;-78
2022/10/18 10:15:54;;;;;;;56.63;27.58;;;;;;;;;;5038331;28;20074;-79
2022/10/18 10:18:35;;;;;;;53.55;28.17;;;;;;;;;;5037741;28;20026;-79
2022/10/18 10:21:31;;;;;;;57.22;28.75;;;;;;;;;;5018296;28;20026;-78
2022/10/18 10:23:58;;;;;;;65.05;30.33;;;;;;;;;;5044115;28;20033;-79
2022/10/18 10:26:32;;;;;;;59.22;29.90;;;;;;;;;;5038826;28;20020;-79
2022/10/18 10:28:58;;;;;;;68.45;33.40;;;;;;;;;;5037864;28;20017;-78
2022/10/18 10:31:24;;;;;;;69.35;30.80;;;;;;;;;;5034533;28;20025;-78
2022/10/18 10:34:06;;;;;;;67.32;30.92;;;;;;;;;;5034467;28;20033;-79
2022/10/18 10:36:33;;;;;;;68.20;31.85;;;;;;;;;;5041870;28;20033;-79
2022/10/18 10:39:25;;;;;;;77.28;34.92;;;;;;;;;;5038206;28;20338;-78
2022/10/18 10:41:52;;;;;;;83.63;35.90;;;;;;;;;;5034511;28;20032;-79
2022/10/18 10:44:32;;;;;;;90.05;35.33;;;;;;;;;;5054189;28;20029;-79
2022/10/18 10:46:59;;;;;;;81.22;34.13;;;;;;;;;;5038023;28;20025;-79
2022/10/18 10:49:29;;;;;;;69.85;33.35;;;;;;;;;;5037590;28;20025;-78
2022/10/18 10:51:56;;;;;;;58.42;27.77;;;;;;;;;;5029285;28;20116;-78
2022/10/18 10:54:24;;;;;;;69.45;30.67;;;;;;;;;;5037408;28;20165;-78
2022/10/18 10:57:01;;;;;;;55.42;28.35;;;;;;;;;;5037480;28;20716;-78
2022/10/18 10:59:29;;;;;;;57.33;28.38;;;;;;;;;;5037424;28;20029;-78
2022/10/18 11:02:16;;;;;;;58.65;28.27;;;;;;;;;;5037636;28;20039;-79
2022/10/18 11:04:45;;;;;;;63.42;28.90;;;;;;;;;;5037210;28;20028;-78
2022/10/18 11:07:44;;;;;;;50.88;27.73;;;;;;;;;;5037091;28;20053;-78
2022/10/18 11:10:10;;;;;;;58.85;30.92;;;;;;;;;;4998085;28;20106;-78
2022/10/18 11:12:37;;;;;;;58.88;29.65;;;;;;;;;;5037304;28;20048;-78
2022/10/18 11:15:13;;;;;;;53.58;27.48;;;;;;;;;;5034492;28;20128;-79
2022/10/18 11:17:46;;;;;;;53.45;31.83;;;;;;;;;;5037304;28;20032;-79
2022/10/18 11:20:19;;;;;;;57.38;29.60;;;;;;;;;;5037080;28;20025;-78
2022/10/18 11:23:09;;;;;;;57.17;29.98;;;;;;;;;;5037311;28;20037;-78
2022/10/18 11:25:47;;;;;;;52.00;29.08;;;;;;;;;;5031708;28;20029;-78
2022/10/18 11:28:21;;;;;;;54.03;30.25;;;;;;;;;;5040524;28;20021;-79
2022/10/18 11:30:47;;;;;;;68.55;37.22;;;;;;;;;;5037891;28;20024;-78
2022/10/18 11:33:13;;;;;;;67.60;35.20;;;;;;;;;;5040264;28;20033;-78
2022/10/18 11:35:45;;;;;;;73.35;38.30;;;;;;;;;;5041122;28;20569;-78
2022/10/18 11:38:11;;;;;;;65.85;35.63;;;;;;;;;;5041226;28;20071;-78
2022/10/18 11:40:41;;;;;;;67.43;35.28;;;;;;;;;;5043841;28;20079;-78
2022/10/18 11:43:33;;;;;;;64.40;34.42;;;;;;;;;;5041260;28;20033;-78
2022/10/18 11:46:05;;;;;;;68.47;36.00;;;;;;;;;;5012439;28;20036;-78
2022/10/18 11:48:34;;;;;;;63.42;36.38;;;;;;;;;;5041611;28;20021;-78
2022/10/18 11:51:20;;;;;;;58.70;34.67;;;;;;;;;;5042228;28;20045;-78
2022/10/18 11:53:55;;;;;;;61.72;35.75;;;;;;;;;;5028746;28;20037;-78
2022/10/18 11:56:31;;;;;;;66.75;37.47;;;;;;;;;;5034184;28;20033;-78
2022/10/18 11:59:06;;;;;;;82.70;39.63;;;;;;;;;;5042503;28;20342;-78
2022/10/18 12:01:35;;;;;;;71.05;40.92;;;;;;;;;;5054945;28;20029;-77
2022/10/18 12:04:11;;;;;;;70.72;38.53;;;;;;;;;;5033329;28;20119;-78
2022/10/18 12:06:38;;;;;;;68.88;39.22;;;;;;;;;;5034934;28;20055;-78
2022/10/18 12:09:10;;;;;;;73.78;40.95;;;;;;;;;;5058689;28;20039;-78
2022/10/18 12:11:39;;;;;;;80.22;42.53;;;;;;;;;;5042350;28;20033;-78
2022/10/18 12:14:13;;;;;;;69.10;40.22;;;;;;;;;;5057967;28;20099;-78
2022/10/18 12:16:41;;;;;;;77.47;43.53;;;;;;;;;;5042567;28;20442;-78
2022/10/18 12:19:13;;;;;;;81.00;44.83;;;;;;;;;;5042167;28;20091;-78
2022/10/18 12:21:40;;;;;;;82.55;45.22;;;;;;;;;;5057851;28;20029;-78
2022/10/18 12:24:08;;;;;;;77.30;44.10;;;;;;;;;;5040170;28;20040;-78
2022/10/18 12:26:35;;;;;;;77.22;41.30;;;;;;;;;;5039542;28;20029;-78
2022/10/18 12:29:01;;;;;;;81.22;44.95;;;;;;;;;;5040523;28;20079;-78
2022/10/18 12:31:32;;;;;;;84.57;47.55;;;;;;;;;;5039958;28;20457;-78
2022/10/18 12:34:02;;;;;;;87.63;46.05;;;;;;;;;;5040243;28;20080;-78
2022/10/18 12:36:28;;;;;;;80.65;44.47;;;;;;;;;;5039802;28;20039;-77
2022/10/18 12:38:57;;;;;;;86.15;44.83;;;;;;;;;;5040000;28;20040;-78
2022/10/18 12:41:34;;;;;;;79.85;40.80;;;;;;;;;;5039955;28;20029;-78
2022/10/18 12:44:16;;;;;;;75.35;39.17;;;;;;;;;;5039829;28;20040;-78
2022/10/18 12:46:43;;;;;;;69.18;37.47;;;;;;;;;;5039732;28;20061;-78
2022/10/18 12:49:11;;;;;;;73.13;38.15;;;;;;;;;;5039870;28;20086;-78
2022/10/18 12:51:49;;;;;;;68.22;36.75;;;;;;;;;;5039642;28;20112;-78
2022/10/18 12:54:16;;;;;;;70.13;37.13;;;;;;;;;;5039334;28;20029;-78
2022/10/18 12:56:43;;;;;;;67.25;36.38;;;;;;;;;;5057044;28;20021;-78
2022/10/18 12:59:15;;;;;;;64.55;34.35;;;;;;;;;;5039958;28;20369;-78
2022/10/18 13:01:50;;;;;;;67.93;32.38;;;;;;;;;;5040630;28;20036;-78
2022/10/18 13:04:31;;;;;;;55.05;30.83;;;;;;;;;;5041546;28;20098;-78
2022/10/18 13:06:57;;;;;;;49.72;27.52;;;;;;;;;;5040834;28;20116;-78
2022/10/18 13:09:30;;;;;;;43.42;26.67;;;;;;;;;;5037855;28;20022;-78
2022/10/18 13:12:08;;;;;;;47.00;25.55;;;;;;;;;;5040096;28;20044;-78
2022/10/18 13:14:34;;;;;;;51.78;27.08;;;;;;;;;;5043012;28;20021;-78
2022/10/18 13:17:20;;;;;;;44.25;25.08;;;;;;;;;;5039907;28;20350;-78
2022/10/18 13:20:04;;;;;;;43.90;24.20;;;;;;;;;;5048903;28;20394;-78
2022/10/18 13:22:49;;;;;;;44.67;22.85;;;;;;;;;;5056019;28;20029;-79
2022/10/18 13:25:20;;;;;;;38.28;23.33;;;;;;;;;;5039281;28;20021;-78
2022/10/18 13:27:54;;;;;;;33.92;19.95;;;;;;;;;;5039279;28;20124;-78
2022/10/18 13:30:23;;;;;;;27.92;18.75;;;;;;;;;;5055123;28;20048;-78
2022/10/18 13:32:52;;;;;;;29.88;18.42;;;;;;;;;;5038925;28;20025;-78
2022/10/18 13:35:37;;;;;;;29.65;18.63;;;;;;;;;;5037239;28;20028;-78
2022/10/18 13:38:04;;;;;;;24.90;17.10;;;;;;;;;;5049831;28;20539;-79
2022/10/18 13:40:32;;;;;;;27.70;18.10;;;;;;;;;;5052312;28;20079;-79
2022/10/18 13:43:18;;;;;;;28.92;17.52;;;;;;;;;;5032059;28;20033;-78
2022/10/18 13:45:53;;;;;;;28.20;17.17;;;;;;;;;;5035374;28;20643;-78
2022/10/18 13:48:31;;;;;;;26.83;15.40;;;;;;;;;;5048698;28;20039;-75
2022/10/18 13:51:01;;;;;;;22.55;14.75;;;;;;;;;;5026317;28;20040;-76
2022/10/18 13:53:45;;;;;;;26.80;16.13;;;;;;;;;;5029478;28;20041;-76
2022/10/18 13:56:20;;;;;;;20.92;12.65;;;;;;;;;;5042277;28;20037;-76
2022/10/18 13:58:56;;;;;;;25.00;14.05;;;;;;;;;;5049542;28;20056;-78
2022/10/18 14:01:29;;;;;;;18.30;11.23;;;;;;;;;;5034802;28;20033;-78
2022/10/18 14:04:11;;;;;;;17.88;11.38;;;;;;;;;;5051003;28;20036;-78
2022/10/18 14:06:41;;;;;;;23.23;13.10;;;;;;;;;;5029858;28;20029;-78
2022/10/18 14:09:24;;;;;;;21.20;14.10;;;;;;;;;;5030465;28;20084;-78
2022/10/18 14:11:54;;;;;;;18.08;12.23;;;;;;;;;;5047812;28;20037;-78
2022/10/18 14:14:36;;;;;;;25.88;16.63;;;;;;;;;;5030238;28;20029;-78
2022/10/18 14:17:21;;;;;;;25.85;15.27;;;;;;;;;;5028433;28;20025;-78
2022/10/18 14:20:11;;;;;;;25.02;14.73;;;;;;;;;;5034180;28;20025;-78
2022/10/18 14:22:46;;;;;;;31.58;14.27;;;;;;;;;;4996037;28;20037;-78
2022/10/18 14:25:20;;;;;;;23.73;15.48;;;;;;;;;;5034998;28;20024;-79
2022/10/18 14:27:46;;;;;;;26.20;14.52;;;;;;;;;;5051938;28;20032;-79
2022/10/18 14:30:12;;;;;;;28.00;15.15;;;;;;;;;;5051237;28;20894;-78
2022/10/18 14:32:42;;;;;;;28.67;14.45;;;;;;;;;;5036097;28;20024;-79